This is the latest recevied weather packets stored in our database for station/object OE-11073. If no packets are shown the sender has not sent any weather packets the latest 10 day(s).
| Time | Temp. | Humidity | Pressure | Rain* | Wind** | Luminosity | Snow |
|---|---|---|---|---|---|---|---|
| 1788325884 | 10° C | 97% | - | 0 mm | - | 15 W/m² | - |
| 1788325510 | 9.44° C | 97% | - | 0 mm | - | 8 W/m² | - |
| 1788324911 | 9.44° C | 97% | - | 0 mm | - | 8 W/m² | - |
| 1788323111 | 9.44° C | 98% | - | 0 mm | - | 0 W/m² | - |
| 1788300685 | 14.44° C | 86% | - | 0 mm | - | 0 W/m² | - |
| 1788300311 | 14.44° C | 86% | - | 0 mm | - | 0 W/m² | - |
| 1788298885 | 13.89° C | 88% | - | 0 mm | - | 0 W/m² | - |
| 1788298511 | 15° C | 84% | - | 0 mm | - | 0 W/m² | - |
| 1788296711 | 15° C | 85% | - | 0 mm | - | 0 W/m² | - |
| 1788293485 | 16.11° C | 83% | - | 0 mm | - | 0 W/m² | - |
| 1788293111 | 16.67° C | 79% | - | 0 mm | - | 0 W/m² | - |
| 1788290711 | 16.67° C | 77% | - | 0 mm | - | 0 W/m² | - |
| 1788289511 | 16.67° C | 84% | - | 0 mm | - | 0 W/m² | - |
| 1788287711 | 16.67° C | 77% | - | 0 mm | - | 0 W/m² | - |
| 1788287111 | 16.67° C | 79% | - | 0 mm | - | 0 W/m² | - |
| 1788286284 | 16.67° C | 78% | - | 0 mm | - | 0 W/m² | - |
| 1788285911 | 17.22° C | 75% | - | 0 mm | - | 0 W/m² | - |
| 1788284111 | 18.33° C | 75% | - | 0 mm | - | 15 W/m² | - |
| 1788283511 | 18.89° C | 69% | - | 0 mm | - | 23 W/m² | - |
| 1788282684 | 19.44° C | 67% | - | 0 mm | - | 31 W/m² | - |
| 1788282311 | 19.44° C | 69% | - | 0 mm | - | 38 W/m² | - |
| 1788281711 | 19.44° C | 66% | - | 0 mm | - | 46 W/m² | - |
| 1788280511 | 19.44° C | 73% | - | 0 mm | - | 77 W/m² | - |
| 1788279911 | 20.56° C | 62% | - | 0 mm | - | 92 W/m² | - |
| 1788278711 | 20.56° C | 61% | - | 0 mm | - | 153 W/m² | - |
* Rain latest hour (hover to see other rain measurements)
** Current wind speed in m/s (hover to see current wind gust speed)